Time;durP1;ratioP1;P1;durP2;ratioP2;P2;SDS_P1;SDS_P2;PMS_P1;PMS_P2;Temp;Humidity;BMP_temperature;BMP_pressure;BME280_temperature;BME280_humidity;BME280_pressure;Samples;Min_cycle;Max_cycle;Signal;HPM_P1;HPM_P2
2021/12/10 00:02:34;;;;;;;10.88;4.72;;;;;;;3.67;87.06;99246.69;4824018;29;19923;-68
2021/12/10 00:06:04;;;;;;;8.13;4.78;;;;;;;3.70;87.10;99236.22;4825074;29;20552;-67
2021/12/10 00:09:14;;;;;;;7.60;3.60;;;;;;;3.79;86.99;99227.19;4824954;29;20052;-67
2021/12/10 00:12:22;;;;;;;7.22;4.00;;;;;;;3.77;86.77;99223.00;4825297;29;20421;-67
2021/12/10 00:15:28;;;;;;;6.10;3.92;;;;;;;3.73;87.23;99217.13;4824891;29;20106;-67
2021/12/10 00:18:36;;;;;;;5.43;3.95;;;;;;;3.64;87.49;99212.38;4824666;29;20161;-67
2021/12/10 00:21:40;;;;;;;9.20;5.03;;;;;;;3.64;87.58;99204.63;4806973;29;20112;-67
2021/12/10 00:24:45;;;;;;;6.25;3.97;;;;;;;3.69;87.40;99210.41;4807048;29;20077;-66
2021/12/10 00:27:51;;;;;;;8.60;4.45;;;;;;;3.81;87.41;99196.09;4806965;29;20059;-67
2021/12/10 00:31:51;;;;;;;6.90;3.88;;;;;;;3.85;86.92;99195.88;4806874;29;20111;-66
2021/12/10 00:34:41;;;;;;;6.43;4.10;;;;;;;3.88;86.51;99180.22;4806316;29;20071;-66
2021/12/10 00:37:45;;;;;;;10.82;4.85;;;;;;;3.86;86.82;99174.31;4806464;29;20053;-66
2021/12/10 00:40:50;;;;;;;7.30;4.32;;;;;;;3.78;86.84;99173.81;4806566;29;20054;-66
2021/12/10 00:43:53;;;;;;;8.50;4.68;;;;;;;3.75;87.09;99166.19;4805467;29;20046;-66
2021/12/10 00:46:56;;;;;;;7.05;3.95;;;;;;;3.75;87.08;99168.78;4808453;29;20414;-66
2021/12/10 00:50:00;;;;;;;8.82;4.80;;;;;;;3.77;87.27;99166.97;4824444;29;20065;-66
2021/12/10 00:53:04;;;;;;;6.13;4.05;;;;;;;3.78;87.43;99163.47;4824347;29;20053;-66
2021/12/10 00:56:08;;;;;;;6.80;3.70;;;;;;;3.75;87.13;99161.03;4824429;29;20519;-66
2021/12/10 00:59:13;;;;;;;5.47;4.07;;;;;;;3.74;87.36;99149.00;4824309;29;20053;-66
2021/12/10 01:02:19;;;;;;;6.53;4.25;;;;;;;3.62;87.90;99149.56;4824112;29;20081;-66
2021/12/10 01:05:23;;;;;;;12.07;4.45;;;;;;;3.53;88.40;99148.25;4824192;29;20516;-67
2021/12/10 01:08:28;;;;;;;6.40;3.55;;;;;;;3.63;88.27;99136.56;4824227;29;20049;-67
2021/12/10 01:11:39;;;;;;;7.03;3.38;;;;;;;3.67;87.74;99129.50;4824321;29;20467;-67
2021/12/10 01:15:09;;;;;;;8.23;3.13;;;;;;;3.66;84.59;99122.66;4823660;29;20061;-67
2021/12/10 01:25:32;;;;;;;8.32;3.28;;;;;;;3.73;86.78;99111.13;4824046;29;20087;-67
2021/12/10 01:28:38;;;;;;;11.50;2.70;;;;;;;3.72;86.90;99112.88;4824018;29;20099;-67
2021/12/10 01:31:42;;;;;;;9.00;3.10;;;;;;;3.57;87.89;99098.06;4823565;29;20271;-67
2021/12/10 01:34:45;;;;;;;8.80;2.72;;;;;;;3.53;86.58;99091.38;4823710;29;20049;-67
2021/12/10 01:37:51;;;;;;;12.57;3.33;;;;;;;3.45;87.94;99093.50;4823462;29;20071;-67
2021/12/10 01:40:58;;;;;;;6.72;3.20;;;;;;;3.54;87.67;99084.47;4823631;29;20111;-67
2021/12/10 01:44:11;;;;;;;10.95;3.10;;;;;;;3.43;87.32;99072.88;4823563;29;20567;-67
2021/12/10 01:47:17;;;;;;;12.07;3.67;;;;;;;3.60;85.49;99074.66;4822880;29;20052;-68
2021/12/10 01:50:22;;;;;;;9.48;2.92;;;;;;;3.78;85.01;99070.38;4823046;29;20571;-67
2021/12/10 01:53:28;;;;;;;8.38;3.20;;;;;;;3.72;85.09;99075.84;4823602;29;20481;-67
2021/12/10 01:56:35;;;;;;;15.35;3.72;;;;;;;3.85;85.13;99071.75;4821955;29;20142;-67
2021/12/10 01:59:42;;;;;;;10.70;3.17;;;;;;;3.84;84.62;99061.50;4823438;29;20054;-67
2021/12/10 02:02:47;;;;;;;12.13;3.90;;;;;;;3.88;84.78;99060.44;4812101;29;20045;-67
2021/12/10 02:05:51;;;;;;;8.40;3.47;;;;;;;3.84;84.71;99052.00;4823352;29;20113;-67
2021/12/10 02:08:54;;;;;;;11.38;4.32;;;;;;;3.73;84.98;99036.16;4823367;29;20049;-67
2021/12/10 02:11:57;;;;;;;11.82;3.83;;;;;;;3.48;86.26;99034.75;4823391;29;20057;-67
2021/12/10 02:15:03;;;;;;;9.00;3.38;;;;;;;3.61;85.98;99022.09;4822921;29;20416;-67
2021/12/10 02:18:09;;;;;;;13.13;3.83;;;;;;;3.63;85.67;99011.66;4823224;29;20130;-67
2021/12/10 02:21:11;;;;;;;11.73;3.70;;;;;;;3.68;85.49;98992.44;4823044;29;20064;-67
2021/12/10 02:24:16;;;;;;;12.40;3.30;;;;;;;3.63;85.82;98988.41;4823131;29;20102;-67
2021/12/10 02:27:19;;;;;;;10.27;2.80;;;;;;;3.67;85.56;98985.63;4823069;29;20041;-67
2021/12/10 02:30:25;;;;;;;11.20;2.80;;;;;;;3.56;85.25;98981.88;4822995;29;20057;-67
2021/12/10 02:33:29;;;;;;;10.00;2.65;;;;;;;3.50;85.39;98981.22;4822888;29;20089;-66
2021/12/10 02:36:32;;;;;;;9.52;2.65;;;;;;;3.22;85.26;98973.13;4822699;29;20528;-67
2021/12/10 02:39:35;;;;;;;14.18;3.05;;;;;;;3.13;85.20;98982.16;4809899;29;20065;-67
2021/12/10 02:42:40;;;;;;;10.70;2.35;;;;;;;3.27;84.99;98973.75;4822805;29;20444;-67
2021/12/10 02:45:48;;;;;;;9.15;2.47;;;;;;;3.35;83.85;98969.06;4822469;29;20421;-67
2021/12/10 02:48:52;;;;;;;9.82;2.38;;;;;;;3.43;84.16;98966.94;4822634;29;20110;-67
2021/12/10 02:51:56;;;;;;;9.38;2.50;;;;;;;3.29;83.88;98961.63;4822471;29;20498;-67
2021/12/10 02:55:00;;;;;;;7.25;2.40;;;;;;;3.23;84.48;98951.56;4822960;29;20057;-67
2021/12/10 02:58:08;;;;;;;9.55;2.78;;;;;;;3.29;84.90;98953.00;4822511;29;20050;-67
2021/12/10 03:01:27;;;;;;;8.25;2.20;;;;;;;3.13;85.04;98943.41;4826147;29;20057;-67
2021/12/10 03:04:31;;;;;;;7.65;2.30;;;;;;;3.06;85.13;98934.25;4826458;29;20516;-67
2021/12/10 03:07:38;;;;;;;12.15;2.80;;;;;;;3.09;85.75;98925.53;4825605;29;20057;-67
2021/12/10 03:10:42;;;;;;;11.45;2.00;;;;;;;3.09;85.54;98907.47;4814840;29;20050;-67
2021/12/10 03:13:45;;;;;;;9.43;2.65;;;;;;;2.92;86.37;98900.53;4825711;29;20122;-67
2021/12/10 03:16:50;;;;;;;;;;;;;;;3.02;86.14;98884.50;4825956;29;20060;-67
2021/12/10 03:19:53;;;;;;;7.85;2.47;;;;;;;3.16;85.67;98883.00;4825862;29;19940;-67
2021/12/10 03:22:59;;;;;;;11.10;2.53;;;;;;;2.87;85.82;98884.41;4825840;29;20524;-67
2021/12/10 03:26:03;;;;;;;8.82;2.47;;;;;;;2.97;85.29;98872.75;4825918;29;20053;-67
2021/12/10 03:29:07;;;;;;;6.55;2.00;;;;;;;2.88;85.26;98871.44;4825646;29;20055;-67
2021/12/10 03:32:12;;;;;;;;;;;;;;;2.59;86.18;98870.22;4826035;29;20469;-67
2021/12/10 03:35:23;;;;;;;9.20;2.40;;;;;;;2.66;86.22;98868.19;4825021;29;20394;-67
2021/12/10 03:38:26;;;;;;;5.85;2.13;;;;;;;2.69;85.54;98865.47;4825592;29;20413;-67
2021/12/10 03:41:29;;;;;;;9.07;2.08;;;;;;;2.57;85.38;98866.84;4825243;29;20571;-67
2021/12/10 03:44:34;;;;;;;4.30;2.03;;;;;;;2.62;85.23;98864.09;4825486;29;20053;-67
2021/12/10 03:47:39;;;;;;;8.77;2.33;;;;;;;2.69;84.81;98862.88;4824456;29;20103;-67
2021/12/10 03:50:44;;;;;;;7.72;2.38;;;;;;;2.69;84.41;98853.38;4824104;29;20077;-67
2021/12/10 03:53:48;;;;;;;11.38;1.88;;;;;;;2.71;84.18;98854.16;4825563;29;20053;-66
2021/12/10 03:56:52;;;;;;;11.32;2.85;;;;;;;2.71;84.28;98843.84;4825106;29;20103;-67
2021/12/10 03:59:55;;;;;;;8.07;2.00;;;;;;;2.51;84.33;98852.50;4824311;29;20103;-67
2021/12/10 04:02:59;;;;;;;;;;;;;;;2.48;84.57;98855.22;4825535;29;20080;-67
2021/12/10 04:06:02;;;;;;;7.22;1.67;;;;;;;2.09;84.50;98845.78;4824625;29;19966;-67
2021/12/10 04:09:06;;;;;;;12.98;3.65;;;;;;;1.91;85.92;98848.34;4824962;29;20134;-67
2021/12/10 04:12:10;;;;;;;13.20;3.72;;;;;;;2.08;86.42;98851.03;4825294;29;20528;-67
2021/12/10 04:15:18;;;;;;;16.85;3.45;;;;;;;2.14;85.48;98837.88;4825001;29;20053;-67
2021/12/10 04:18:22;;;;;;;9.75;2.70;;;;;;;2.19;85.19;98824.75;4825195;29;20562;-67
2021/12/10 04:21:26;;;;;;;;;;;;;;;2.20;84.60;98818.69;4825312;29;20470;-67
2021/12/10 04:24:33;;;;;;;11.85;3.38;;;;;;;2.19;84.58;98820.44;4823772;29;19924;-67
2021/12/10 04:27:36;;;;;;;15.40;3.00;;;;;;;2.15;84.46;98818.91;4824717;29;20106;-67
2021/12/10 04:30:42;;;;;;;38.58;4.25;;;;;;;1.95;85.75;98827.53;4824414;29;20069;-67
2021/12/10 04:33:45;;;;;;;18.00;3.90;;;;;;;1.79;86.58;98816.22;4823612;29;20106;-67
2021/12/10 04:36:50;;;;;;;18.45;3.30;;;;;;;1.95;86.09;98804.34;4824555;29;20160;-67
2021/12/10 04:39:54;;;;;;;9.27;2.92;;;;;;;2.02;85.10;98802.31;4823541;29;20049;-67
2021/12/10 04:42:58;;;;;;;23.42;4.63;;;;;;;2.08;85.52;98794.31;4824559;29;20582;-67
2021/12/10 04:46:02;;;;;;;26.20;3.53;;;;;;;2.03;85.51;98786.78;4824782;29;20102;-67
2021/12/10 04:49:12;;;;;;;11.63;3.70;;;;;;;2.05;86.22;98772.06;4824381;29;20103;-67
2021/12/10 04:52:15;;;;;;;43.58;4.55;;;;;;;2.00;86.19;98762.88;4824471;29;20057;-67
2021/12/10 04:55:19;;;;;;;;;;;;;;;1.96;86.04;98759.59;4824690;29;20053;-67
2021/12/10 04:58:23;;;;;;;25.58;3.15;;;;;;;1.67;87.09;98757.50;4823952;29;19928;-66
2021/12/10 05:01:28;;;;;;;7.13;3.50;;;;;;;1.73;86.79;98744.34;4824324;29;20095;-67
2021/12/10 05:04:32;;;;;;;14.55;5.03;;;;;;;1.83;86.15;98748.19;4824111;29;20062;-67
2021/12/10 05:07:37;;;;;;;13.55;4.43;;;;;;;1.83;85.78;98743.84;4802938;29;20063;-67
2021/12/10 05:10:41;;;;;;;13.63;3.50;;;;;;;1.95;85.51;98739.91;4814642;29;20057;-67
2021/12/10 05:13:47;;;;;;;16.38;3.55;;;;;;;1.78;85.81;98724.34;4814895;29;20524;-67
2021/12/10 05:16:52;;;;;;;8.57;3.30;;;;;;;1.84;85.85;98724.91;4819199;29;20114;-67
2021/12/10 05:19:59;;;;;;;20.10;7.65;;;;;;;1.89;86.01;98714.41;4819782;29;20053;-67
2021/12/10 05:23:03;;;;;;;12.50;4.68;;;;;;;1.70;86.33;98709.25;4818513;29;20053;-67
2021/12/10 05:26:08;;;;;;;10.65;5.20;;;;;;;1.71;85.72;98716.06;4818123;29;20078;-67
2021/12/10 05:29:12;;;;;;;5.60;2.53;;;;;;;1.64;86.06;98714.66;4819740;29;20540;-67
2021/12/10 05:32:17;;;;;;;31.17;2.40;;;;;;;1.56;85.80;98709.00;4819895;29;20134;-67
2021/12/10 05:35:21;;;;;;;4.85;2.20;;;;;;;1.67;85.80;98708.56;4809086;29;20109;-66
2021/12/10 05:38:24;;;;;;;15.30;8.63;;;;;;;1.69;85.54;98701.56;4819063;29;20107;-67
2021/12/10 05:41:28;;;;;;;22.95;13.68;;;;;;;1.72;84.99;98693.69;4818525;29;20086;-67
2021/12/10 05:44:32;;;;;;;26.15;9.38;;;;;;;1.69;84.94;98688.69;4818995;29;20572;-69
2021/12/10 05:47:35;;;;;;;30.63;7.18;;;;;;;1.69;84.50;98676.66;4819308;29;20134;-67
2021/12/10 05:50:38;;;;;;;19.95;5.78;;;;;;;1.53;84.66;98676.53;4819685;29;20110;-67
2021/12/10 05:53:42;;;;;;;;;;;;;;;1.58;84.94;98678.88;4801875;29;20490;-67
2021/12/10 06:01:35;;;;;;;12.77;4.20;;;;;;;1.54;84.98;98644.69;4799317;29;20063;-68
2021/12/10 06:04:39;;;;;;;31.17;2.45;;;;;;;1.43;85.38;98654.63;4824680;29;20049;-68
2021/12/10 06:07:44;;;;;;;11.68;5.05;;;;;;;1.46;85.38;98649.34;4806683;29;20127;-67
2021/12/10 06:10:48;;;;;;;42.60;13.50;;;;;;;1.43;85.25;98633.22;4816328;29;20090;-68
2021/12/10 06:13:52;;;;;;;11.13;5.90;;;;;;;1.41;85.28;98627.31;4818615;29;20081;-68
2021/12/10 06:16:56;;;;;;;30.95;10.68;;;;;;;1.10;86.22;98626.09;4818625;29;20057;-67
2021/12/10 06:20:28;;;;;;;10.60;5.20;;;;;;;1.19;86.14;98627.44;4807337;29;20106;-67
2021/12/10 06:23:38;;;;;;;9.93;4.20;;;;;;;1.08;85.99;98625.31;4817354;29;20057;-67
2021/12/10 06:26:43;;;;;;;8.05;4.35;;;;;;;1.07;86.05;98624.47;4818139;29;20125;-67
2021/12/10 06:29:46;;;;;;;7.50;3.38;;;;;;;1.03;86.27;98620.38;4814990;29;20441;-67
2021/12/10 06:32:53;;;;;;;10.65;4.80;;;;;;;1.29;85.48;98620.97;4817800;29;20106;-67
2021/12/10 06:36:03;;;;;;;12.85;7.60;;;;;;;1.36;85.41;98606.91;4818420;29;20057;-67
2021/12/10 06:39:08;;;;;;;8.63;4.40;;;;;;;1.27;85.42;98604.72;4816983;29;20058;-67
2021/12/10 06:42:11;;;;;;;6.30;2.90;;;;;;;1.30;85.22;98597.69;4818495;29;20088;-67
2021/12/10 06:45:18;;;;;;;6.68;4.93;;;;;;;1.27;85.39;98602.16;4819198;29;20049;-67
2021/12/10 06:48:25;;;;;;;5.78;3.28;;;;;;;1.15;85.88;98598.41;4818749;29;20053;-67
2021/12/10 06:51:54;;;;;;;7.32;3.80;;;;;;;1.30;85.62;98586.56;4816580;29;20061;-68
2021/12/10 06:54:57;;;;;;;6.95;3.92;;;;;;;1.29;85.79;98584.91;4798719;29;20088;-67
2021/12/10 06:58:02;;;;;;;8.38;3.35;;;;;;;1.42;85.52;98583.44;4798906;29;20050;-67
2021/12/10 07:01:12;;;;;;;10.82;5.05;;;;;;;1.43;85.14;98579.94;4799176;29;20270;-67
2021/12/10 07:04:15;;;;;;;9.85;5.03;;;;;;;1.45;84.94;98574.75;4805353;29;20141;-67
2021/12/10 07:07:18;;;;;;;;;;;;;;;1.29;85.37;98574.63;4823307;29;20069;-67
2021/12/10 07:10:22;;;;;;;15.80;9.98;;;;;;;1.29;85.60;98580.59;4817510;29;20430;-67
2021/12/10 07:13:26;;;;;;;10.70;4.90;;;;;;;1.28;85.09;98578.09;4814938;29;20045;-68
2021/12/10 07:16:33;;;;;;;9.75;6.00;;;;;;;1.15;85.67;98583.81;4816426;29;20085;-68
2021/12/10 07:19:37;;;;;;;10.48;5.57;;;;;;;1.27;85.75;98576.41;4817802;29;20110;-67
2021/12/10 07:22:40;;;;;;;8.88;4.53;;;;;;;1.03;86.00;98581.78;4818513;29;20520;-67
2021/12/10 07:25:44;;;;;;;12.80;6.07;;;;;;;1.00;86.28;98581.06;4818276;29;20671;-67
2021/12/10 07:28:47;;;;;;;12.82;6.40;;;;;;;1.02;86.12;98582.69;4817974;29;20094;-67
2021/12/10 07:31:50;;;;;;;;;;;;;;;1.08;86.09;98586.69;4807074;29;20073;-67
2021/12/10 07:34:53;;;;;;;10.87;5.80;;;;;;;1.20;85.79;98582.75;4817348;29;19990;-66
2021/12/10 07:37:57;;;;;;;14.30;5.57;;;;;;;1.36;84.95;98574.25;4818430;29;20053;-67
2021/12/10 07:41:01;;;;;;;9.27;4.75;;;;;;;1.39;84.55;98561.25;4818164;29;20068;-67
2021/12/10 07:44:04;;;;;;;10.20;5.60;;;;;;;1.40;84.64;98559.50;4816992;29;20076;-67
2021/12/10 07:47:12;;;;;;;13.05;6.63;;;;;;;1.31;84.71;98567.66;4802451;29;20045;-68
2021/12/10 07:50:20;;;;;;;17.77;8.93;;;;;;;1.36;85.29;98560.56;4826985;29;20074;-68
2021/12/10 07:53:27;;;;;;;32.50;19.10;;;;;;;1.41;84.75;98566.34;4819824;29;20050;-67
2021/12/10 07:56:32;;;;;;;31.02;19.90;;;;;;;1.49;84.47;98553.91;4820334;29;20118;-67
2021/12/10 07:59:35;;;;;;;29.75;15.98;;;;;;;1.51;84.18;98544.38;4820377;29;20172;-70
2021/12/10 08:02:38;;;;;;;46.10;22.42;;;;;;;1.56;84.22;98541.59;4819551;29;20489;-67
2021/12/10 08:05:42;;;;;;;;;;;;;;;1.58;84.04;98540.59;4819771;29;20061;-67
2021/12/10 08:08:45;;;;;;;20.40;8.48;;;;;;;1.45;84.15;98538.69;4819863;29;19923;-67
2021/12/10 08:11:49;;;;;;;9.35;5.15;;;;;;;1.44;84.30;98537.88;4823237;29;20150;-67
2021/12/10 08:14:55;;;;;;;8.43;4.43;;;;;;;1.49;84.41;98541.03;4823122;29;20474;-67
2021/12/10 08:17:58;;;;;;;21.65;10.57;;;;;;;1.45;84.60;98542.09;4824743;29;20119;-67
2021/12/10 08:21:02;;;;;;;18.67;9.73;;;;;;;1.52;84.26;98546.03;4824830;29;20054;-67
2021/12/10 08:24:06;;;;;;;23.70;13.15;;;;;;;1.47;84.78;98542.00;4824958;29;20053;-67
2021/12/10 08:27:09;;;;;;;12.82;8.23;;;;;;;1.32;85.02;98538.44;4824957;29;20515;-67
2021/12/10 08:30:16;;;;;;;14.73;10.40;;;;;;;1.54;84.92;98544.25;4824996;29;20057;-67
2021/12/10 08:33:20;;;;;;;17.17;10.73;;;;;;;1.44;85.47;98553.31;4824739;29;20099;-67
2021/12/10 08:36:24;;;;;;;13.73;8.60;;;;;;;1.45;85.29;98549.81;4806617;29;20053;-67
2021/12/10 08:39:28;;;;;;;16.10;9.98;;;;;;;1.36;85.96;98545.09;4806734;29;20046;-67
2021/12/10 08:42:32;;;;;;;16.38;10.32;;;;;;;1.54;85.79;98541.66;4817945;29;20103;-67
2021/12/10 08:45:37;;;;;;;14.00;8.45;;;;;;;1.67;85.03;98528.22;4824609;29;20069;-67
2021/12/10 08:48:41;;;;;;;8.45;5.13;;;;;;;1.97;85.13;98536.19;4824463;29;20076;-67
2021/12/10 08:51:48;;;;;;;16.15;6.03;;;;;;;2.17;84.60;98543.78;4824147;29;20115;-67
2021/12/10 08:54:52;;;;;;;10.90;5.93;;;;;;;2.14;83.86;98540.50;4824492;29;20125;-67
2021/12/10 08:57:55;;;;;;;11.70;5.68;;;;;;;2.15;83.53;98537.03;4823497;29;20089;-67
2021/12/10 09:01:04;;;;;;;10.13;5.28;;;;;;;2.04;83.98;98546.13;4823015;29;20527;-67
2021/12/10 09:04:09;;;;;;;7.90;3.78;;;;;;;1.95;82.28;98538.84;4822743;29;20057;-67
2021/12/10 09:07:16;;;;;;;7.55;3.30;;;;;;;2.14;81.83;98537.94;4823112;29;20090;-67
2021/12/10 09:10:24;;;;;;;7.18;2.53;;;;;;;2.20;79.85;98537.63;4823137;29;20053;-67
2021/12/10 09:13:27;;;;;;;11.95;3.30;;;;;;;2.23;79.54;98527.97;4824261;29;20061;-67
2021/12/10 09:16:31;;;;;;;;;;;;;;;2.42;80.55;98527.91;4824361;29;20569;-67
2021/12/10 09:19:36;;;;;;;8.68;3.65;;;;;;;2.50;81.60;98519.78;4813054;29;19966;-67
2021/12/10 09:22:40;;;;;;;12.20;2.53;;;;;;;2.30;81.67;98515.66;4823962;29;20048;-67
2021/12/10 09:25:44;;;;;;;8.10;2.90;;;;;;;2.34;81.98;98509.41;4824086;29;20053;-67
2021/12/10 09:28:48;;;;;;;6.70;2.63;;;;;;;2.46;82.13;98506.22;4823898;29;20077;-67
2021/12/10 09:31:52;;;;;;;;;;;;;;;2.65;81.31;98484.59;4824556;29;20085;-67
2021/12/10 09:34:56;;;;;;;;;;;;;;;2.71;81.24;98479.97;4812828;29;19924;-67
2021/12/10 09:38:00;;;;;;;9.75;2.65;;;;;;;2.79;80.80;98475.22;4823775;29;19928;-67
2021/12/10 09:41:05;;;;;;;7.07;2.60;;;;;;;2.75;81.74;98467.72;4823849;29;20107;-67
2021/12/10 09:44:10;;;;;;;11.02;2.88;;;;;;;2.76;82.04;98461.66;4823511;29;20049;-67
2021/12/10 09:47:15;;;;;;;5.22;2.20;;;;;;;2.82;81.22;98450.16;4823649;29;20095;-67
2021/12/10 09:50:22;;;;;;;8.45;3.13;;;;;;;2.74;79.71;98446.25;4823294;29;20061;-67
2021/12/10 09:53:32;;;;;;;7.15;2.63;;;;;;;2.84;79.34;98441.44;4823660;29;20057;-67
2021/12/10 09:56:35;;;;;;;5.85;2.75;;;;;;;2.85;77.35;98427.59;4823445;29;20076;-67
2021/12/10 09:59:41;;;;;;;;;;;;;;;2.95;77.39;98427.94;4812247;29;20064;-68
2021/12/10 10:02:44;;;;;;;7.68;2.85;;;;;;;2.91;77.78;98419.53;4823423;29;19924;-67
2021/12/10 10:05:48;;;;;;;6.18;2.40;;;;;;;2.98;74.94;98418.28;4823396;29;20054;-67
2021/12/10 10:08:52;;;;;;;;;;;;;;;3.16;75.90;98416.44;4822442;29;20045;-67
2021/12/10 10:12:04;;;;;;;8.43;2.60;;;;;;;3.19;74.46;98408.50;4823244;29;20011;-67
2021/12/10 10:15:15;;;;;;;6.97;2.95;;;;;;;3.19;76.69;98412.81;4823206;29;20079;-67
2021/12/10 10:18:20;;;;;;;7.53;4.05;;;;;;;3.24;77.49;98409.06;4823071;29;20053;-67
2021/12/10 10:21:28;;;;;;;8.45;3.60;;;;;;;3.39;75.64;98409.16;4823191;29;20573;-67
2021/12/10 10:24:32;;;;;;;9.20;3.58;;;;;;;3.42;74.67;98407.22;4823107;29;20053;-67
2021/12/10 10:27:37;;;;;;;10.35;2.17;;;;;;;3.43;71.98;98408.88;4822915;29;20050;-67
2021/12/10 10:30:52;;;;;;;16.23;3.70;;;;;;;3.42;73.85;98406.38;4823061;29;20470;-67
2021/12/10 10:33:58;;;;;;;8.27;2.72;;;;;;;3.37;72.63;98403.22;4822692;29;20174;-67
2021/12/10 10:37:02;;;;;;;6.97;2.17;;;;;;;3.35;73.61;98402.47;4822901;29;20053;-67
2021/12/10 10:40:08;;;;;;;18.65;2.78;;;;;;;3.47;74.81;98399.19;4822896;29;20111;-67
2021/12/10 10:43:12;;;;;;;7.55;2.33;;;;;;;3.54;73.95;98400.50;4822560;29;20057;-68
2021/12/10 10:46:15;;;;;;;6.75;2.10;;;;;;;3.46;75.09;98402.69;4823066;29;20073;-67
2021/12/10 10:49:32;;;;;;;7.68;2.80;;;;;;;3.36;70.88;98404.16;4822740;29;20058;-67
2021/12/10 10:52:38;;;;;;;9.10;2.90;;;;;;;3.30;69.53;98401.91;4822871;29;20052;-67
2021/12/10 10:55:57;;;;;;;8.30;2.25;;;;;;;3.37;70.26;98395.47;4822826;29;20520;-67
2021/12/10 10:59:09;;;;;;;7.35;1.98;;;;;;;3.48;70.51;98386.19;4823008;29;20046;-67
2021/12/10 11:02:13;;;;;;;11.23;2.22;;;;;;;3.57;71.53;98383.97;4822657;29;20103;-67
2021/12/10 11:05:16;;;;;;;;;;;;;;;3.77;71.67;98383.69;4823362;29;20059;-67
2021/12/10 11:08:40;;;;;;;6.70;2.37;;;;;;;3.84;70.77;98387.56;4821108;29;19923;-67
2021/12/10 11:11:53;;;;;;;5.68;1.83;;;;;;;3.82;69.68;98381.63;4821893;29;20348;-67
2021/12/10 11:14:58;;;;;;;;;;;;;;;3.62;69.40;98379.41;4821870;29;20467;-67
2021/12/10 11:18:01;;;;;;;11.43;1.45;;;;;;;3.66;69.39;98386.03;4822426;29;19928;-67
2021/12/10 11:21:05;;;;;;;4.00;1.92;;;;;;;3.81;68.95;98392.06;4825044;29;20049;-67
2021/12/10 11:24:15;;;;;;;;;;;;;;;3.92;70.72;98390.53;4826602;29;20420;-67
2021/12/10 11:27:30;;;;;;;6.47;1.90;;;;;;;3.55;68.80;98388.44;4825996;29;19924;-68
2021/12/10 11:30:34;;;;;;;7.40;2.28;;;;;;;3.34;68.39;98388.72;4825924;29;20049;-68
2021/12/10 11:33:48;;;;;;;6.57;1.95;;;;;;;3.39;68.33;98381.56;4825261;29;20625;-68
2021/12/10 11:36:52;;;;;;;11.52;2.13;;;;;;;3.27;68.79;98392.56;4825703;29;20053;-68
2021/12/10 11:39:55;;;;;;;5.68;2.00;;;;;;;3.24;68.96;98392.75;4825500;29;20065;-67
2021/12/10 11:43:19;;;;;;;9.05;2.30;;;;;;;3.21;69.17;98387.75;4825842;29;20145;-67
2021/12/10 11:47:25;;;;;;;7.30;2.10;;;;;;;3.32;69.05;98385.41;4825516;29;20053;-68
2021/12/10 11:50:22;;;;;;;4.47;2.03;;;;;;;3.29;68.44;98395.06;4825123;29;20564;-68
2021/12/10 11:53:35;;;;;;;7.68;2.80;;;;;;;3.33;69.02;98387.06;4825400;29;20072;-68
2021/12/10 11:56:42;;;;;;;7.60;1.95;;;;;;;3.34;69.21;98388.72;4825298;29;20081;-68
2021/12/10 11:59:51;;;;;;;6.20;2.58;;;;;;;3.58;68.93;98385.66;4825291;29;20115;-67
2021/12/10 12:03:03;;;;;;;7.50;2.45;;;;;;;3.57;69.00;98381.41;4825263;29;20463;-67
2021/12/10 12:06:12;;;;;;;4.93;1.95;;;;;;;3.65;69.87;98376.63;4825101;29;20205;-67
2021/12/10 12:09:31;;;;;;;8.43;2.50;;;;;;;3.65;69.02;98374.88;4824855;29;20053;-67
2021/12/10 12:12:46;;;;;;;6.28;2.95;;;;;;;3.84;68.99;98369.47;4814149;29;20085;-67
2021/12/10 12:16:17;;;;;;;7.78;3.20;;;;;;;3.87;69.23;98366.69;4824976;29;20045;-67
2021/12/10 12:19:30;;;;;;;5.65;2.40;;;;;;;3.68;68.96;98372.13;4824078;29;20114;-68
2021/12/10 12:25:59;;;;;;;5.65;2.33;;;;;;;3.63;68.02;98378.47;4824813;29;20106;-68
2021/12/10 12:29:14;;;;;;;6.72;2.60;;;;;;;3.44;68.29;98379.53;4825008;29;20118;-68
2021/12/10 12:32:21;;;;;;;8.60;2.90;;;;;;;3.42;69.00;98371.03;4823836;29;20474;-67
2021/12/10 12:35:32;;;;;;;10.60;3.40;;;;;;;3.38;68.96;98374.72;4824644;29;20053;-67
2021/12/10 12:38:43;;;;;;;7.65;3.10;;;;;;;3.47;69.41;98369.00;4824723;29;20057;-67
2021/12/10 12:41:47;;;;;;;9.38;2.67;;;;;;;3.56;68.61;98361.66;4823829;29;20068;-67
2021/12/10 12:44:57;;;;;;;8.18;2.83;;;;;;;3.63;68.38;98357.78;4823871;29;20593;-67
2021/12/10 12:48:07;;;;;;;6.57;2.83;;;;;;;3.62;68.45;98363.88;4821610;29;20049;-67
2021/12/10 12:51:12;;;;;;;12.55;4.68;;;;;;;3.67;68.62;98364.44;4802137;29;20119;-67
2021/12/10 12:54:16;;;;;;;9.82;3.88;;;;;;;3.72;68.97;98352.09;4801537;29;20241;-68
2021/12/10 12:57:19;;;;;;;7.30;4.45;;;;;;;3.81;68.62;98355.88;4793620;29;20049;-67
2021/12/10 13:00:29;;;;;;;;;;;;;;;3.59;68.98;98364.06;4820078;29;20420;-68
2021/12/10 13:03:43;;;;;;;14.48;8.30;;;;;;;3.55;69.73;98360.00;4818925;29;19924;-68
2021/12/10 13:06:52;;;;;;;9.57;4.15;;;;;;;3.49;70.07;98362.00;4818525;29;20398;-67
2021/12/10 13:09:58;;;;;;;8.60;3.92;;;;;;;3.54;69.68;98363.50;4819345;29;20076;-67
2021/12/10 13:13:12;;;;;;;8.45;4.68;;;;;;;3.32;69.19;98363.88;4818839;29;20049;-68
2021/12/10 13:16:37;;;;;;;6.05;2.70;;;;;;;3.47;70.31;98363.84;4817218;29;20591;-67
2021/12/10 13:19:40;;;;;;;8.23;3.63;;;;;;;3.20;70.74;98370.59;4819929;29;20050;-68
2021/12/10 13:22:43;;;;;;;10.15;4.00;;;;;;;3.15;71.29;98377.78;4819944;29;20049;-67
2021/12/10 13:25:48;;;;;;;6.22;3.08;;;;;;;3.20;71.26;98371.44;4487983;29;9999592;-67
2021/12/10 13:28:52;;;;;;;7.10;3.00;;;;;;;3.17;71.47;98365.63;4824260;29;20085;-67
2021/12/10 13:31:57;;;;;;;6.13;2.90;;;;;;;3.37;71.80;98367.88;4488305;29;9999916;-68
2021/12/10 13:35:01;;;;;;;6.90;3.13;;;;;;;3.37;71.75;98379.97;4820611;29;20429;-67
2021/12/10 13:38:06;;;;;;;6.63;3.75;;;;;;;3.39;72.23;98376.38;4820774;29;20076;-67
2021/12/10 13:41:11;;;;;;;6.35;3.63;;;;;;;3.45;72.45;98376.03;4820878;29;20057;-68
2021/12/10 13:44:31;;;;;;;10.32;3.72;;;;;;;3.57;72.43;98383.97;4818999;29;20111;-67
2021/12/10 13:47:40;;;;;;;8.40;4.20;;;;;;;3.35;72.15;98376.63;4802381;29;20046;-67
2021/12/10 13:50:54;;;;;;;7.25;3.45;;;;;;;3.38;73.42;98377.31;4810316;29;20069;-67
2021/12/10 13:54:21;;;;;;;18.33;9.63;;;;;;;3.37;73.67;98390.31;4808934;29;20058;-67
2021/12/10 13:57:24;;;;;;;12.38;4.63;;;;;;;3.48;74.14;98391.38;4820571;29;20080;-67
2021/12/10 14:00:28;;;;;;;6.82;3.75;;;;;;;3.54;73.88;98397.09;4820634;29;20405;-67
2021/12/10 14:03:46;;;;;;;6.97;3.30;;;;;;;3.31;74.32;98401.81;4802056;29;20118;-68
2021/12/10 14:07:14;;;;;;;6.97;3.33;;;;;;;3.42;74.25;98406.38;4801474;29;20187;-67
2021/12/10 14:10:33;;;;;;;7.35;3.38;;;;;;;3.37;74.25;98406.63;4475585;29;10000086;-68
2021/12/10 14:13:37;;;;;;;7.03;3.10;;;;;;;3.29;74.54;98418.31;4819908;29;20056;-67
2021/12/10 14:16:55;;;;;;;7.10;3.20;;;;;;;3.40;73.95;98421.97;4819976;29;20145;-67
2021/12/10 14:20:09;;;;;;;7.32;3.25;;;;;;;3.55;74.55;98422.03;4819669;29;20080;-67
2021/12/10 14:23:17;;;;;;;10.68;4.78;;;;;;;3.41;74.75;98431.34;4819730;29;20523;-67
2021/12/10 14:26:24;;;;;;;5.32;3.03;;;;;;;3.37;75.26;98434.22;4820137;29;20107;-67
2021/12/10 14:29:27;;;;;;;7.10;4.00;;;;;;;3.32;76.17;98431.91;4819841;29;20061;-67
2021/12/10 14:32:32;;;;;;;8.30;3.97;;;;;;;3.42;76.82;98438.22;4819580;29;20588;-67
2021/12/10 14:35:45;;;;;;;8.10;3.65;;;;;;;3.45;77.39;98439.81;4819613;29;20093;-67
2021/12/10 14:38:49;;;;;;;;;;;;;;;3.40;76.67;98447.78;4487278;29;10000492;-67
2021/12/10 14:41:54;;;;;;;;;;;;;;;3.41;77.85;98452.03;4816339;29;19928;-67
2021/12/10 14:45:10;;;;;;;8.65;3.25;;;;;;;3.41;78.48;98456.38;4815493;29;19950;-67
2021/12/10 14:48:13;;;;;;;8.70;3.75;;;;;;;3.44;78.27;98458.78;4816786;29;20528;-68
2021/12/10 14:51:18;;;;;;;6.03;3.17;;;;;;;3.46;78.70;98460.38;4819254;29;20065;-67
2021/12/10 14:54:21;;;;;;;7.95;3.30;;;;;;;3.54;78.30;98466.84;4819932;29;20110;-68
2021/12/10 14:57:43;;;;;;;;;;;;;;;3.48;78.57;98471.47;4822282;29;20061;-67
2021/12/10 15:00:56;;;;;;;5.55;3.45;;;;;;;3.34;79.51;98473.97;4822582;29;20345;-67
2021/12/10 15:04:20;;;;;;;5.22;2.92;;;;;;;3.42;80.00;98484.72;4803542;29;20058;-67
2021/12/10 15:07:38;;;;;;;6.55;3.70;;;;;;;3.26;80.74;98481.31;4803556;29;20045;-68
2021/12/10 15:10:47;;;;;;;6.35;3.58;;;;;;;3.23;81.54;98482.31;4804386;29;20477;-67